Time;durP1;ratioP1;P1;durP2;ratioP2;P2;SDS_P1;SDS_P2;PMS_P1;PMS_P2;Temp;Humidity;BMP_temperature;BMP_pressure;BME280_temperature;BME280_humidity;BME280_pressure;Samples;Min_cycle;Max_cycle;Signal;HPM_P1;HPM_P2
2023/01/18 00:01:13;;;;;;;6.65;2.13;;;-0.10;99.90;;;;;;5087469;28;20438;-80
2023/01/18 00:03:41;;;;;;;5.43;2.40;;;-0.10;99.90;;;;;;5086909;28;20496;-79
2023/01/18 00:06:09;;;;;;;4.60;2.20;;;-0.10;99.90;;;;;;5087049;28;20451;-79
2023/01/18 00:08:37;;;;;;;5.43;2.75;;;-0.10;99.90;;;;;;5087998;28;20493;-79
2023/01/18 00:11:11;;;;;;;4.68;2.30;;;-0.20;99.90;;;;;;5087248;28;20452;-79
2023/01/18 00:13:38;;;;;;;5.18;2.38;;;-0.20;99.90;;;;;;5087885;28;20441;-80
2023/01/18 00:16:05;;;;;;;4.65;2.05;;;-0.20;99.90;;;;;;5069986;28;20394;-79
2023/01/18 00:18:31;;;;;;;5.43;2.55;;;-0.20;99.90;;;;;;5087210;28;20416;-79
2023/01/18 00:21:01;;;;;;;7.80;3.00;;;-0.20;99.90;;;;;;5086770;28;20951;-80
2023/01/18 00:23:27;;;;;;;3.92;2.08;;;-0.20;99.90;;;;;;5088849;28;20824;-79
2023/01/18 00:25:53;;;;;;;5.65;2.50;;;-0.20;99.90;;;;;;5086590;28;20405;-79
2023/01/18 00:28:22;;;;;;;5.60;2.40;;;-0.20;99.90;;;;;;5070120;28;20459;-79
2023/01/18 00:30:48;;;;;;;4.65;2.28;;;-0.20;99.90;;;;;;5070166;28;20424;-79
2023/01/18 00:33:13;;;;;;;4.20;2.50;;;-0.20;99.90;;;;;;5067495;28;20474;-79
2023/01/18 00:35:39;;;;;;;4.18;2.35;;;-0.20;99.90;;;;;;5075555;28;20434;-79
2023/01/18 00:38:05;;;;;;;6.47;2.73;;;-0.20;99.90;;;;;;5069563;28;20467;-79
2023/01/18 00:40:30;;;;;;;5.63;2.45;;;-0.20;99.90;;;;;;5087208;28;20402;-79
2023/01/18 00:45:41;;;;;;;5.47;2.80;;;-0.20;99.90;;;;;;5106890;28;20412;-79
2023/01/18 00:48:06;;;;;;;6.32;2.70;;;-0.20;99.90;;;;;;5093022;28;20872;-80
2023/01/18 00:50:32;;;;;;;6.13;2.92;;;-0.20;99.90;;;;;;5095565;28;20446;-79
2023/01/18 00:52:58;;;;;;;6.82;2.78;;;-0.20;99.90;;;;;;5090616;28;20428;-79
2023/01/18 00:55:25;;;;;;;5.32;2.60;;;-0.20;99.90;;;;;;5095486;28;20406;-79
2023/01/18 00:57:51;;;;;;;6.15;3.00;;;-0.20;99.90;;;;;;5090772;28;20414;-79
2023/01/18 01:00:17;;;;;;;5.77;2.80;;;-0.20;99.90;;;;;;5106525;28;20404;-79
2023/01/18 01:02:43;;;;;;;4.38;2.67;;;-0.20;99.90;;;;;;5092475;28;20388;-79
2023/01/18 01:08:06;;;;;;;7.75;3.10;;;-0.20;99.90;;;;;;5095725;28;20401;-79
2023/01/18 01:10:34;;;;;;;5.35;2.58;;;-0.20;99.90;;;;;;5089861;28;20473;-80
2023/01/18 01:26:42;;;;;;;7.65;3.00;;;-0.20;99.90;;;;;;5089878;28;20410;-79
2023/01/18 01:29:08;;;;;;;6.13;2.93;;;-0.10;99.90;;;;;;5090084;28;20450;-79
2023/01/18 01:31:33;;;;;;;6.00;2.90;;;-0.20;99.90;;;;;;5089836;28;20522;-79
2023/01/18 01:33:59;;;;;;;5.28;3.35;;;-0.10;99.90;;;;;;5081289;28;20768;-79
2023/01/18 01:36:26;;;;;;;6.57;2.87;;;-0.10;99.90;;;;;;5098043;28;20411;-79
2023/01/18 01:38:53;;;;;;;7.32;3.03;;;-0.20;99.90;;;;;;5090103;28;20398;-79
2023/01/18 01:41:30;;;;;;;5.80;3.33;;;-0.10;99.90;;;;;;5090490;28;20480;-79
2023/01/18 01:43:58;;;;;;;6.60;3.10;;;-0.10;99.90;;;;;;5090151;28;20414;-79
2023/01/18 01:46:46;;;;;;;6.50;3.33;;;-0.10;99.90;;;;;;5089875;28;20402;-79
2023/01/18 01:49:16;;;;;;;6.18;3.20;;;-0.10;99.90;;;;;;5090068;28;20862;-79
2023/01/18 01:51:48;;;;;;;7.10;3.60;;;-0.10;99.90;;;;;;5090666;28;20434;-79
2023/01/18 01:54:36;;;;;;;6.43;3.20;;;-0.20;99.90;;;;;;5090001;28;20463;-79
2023/01/18 01:57:09;;;;;;;6.05;3.15;;;-0.20;99.90;;;;;;5089333;28;20452;-78
2023/01/18 01:59:40;;;;;;;6.13;3.30;;;-0.20;99.90;;;;;;5088866;28;20394;-79
2023/01/18 02:02:06;;;;;;;6.75;3.63;;;-0.20;99.90;;;;;;5089722;28;20409;-79
2023/01/18 02:04:33;;;;;;;6.10;3.53;;;-0.20;99.90;;;;;;5089531;28;20764;-79
2023/01/18 02:06:59;;;;;;;7.97;3.40;;;-0.20;99.90;;;;;;5089535;28;20406;-79
2023/01/18 02:09:25;;;;;;;6.38;3.55;;;-0.20;99.90;;;;;;5071720;28;20408;-79
2023/01/18 02:11:53;;;;;;;8.57;3.88;;;-0.20;99.90;;;;;;5088807;28;20425;-79
2023/01/18 02:14:21;;;;;;;5.65;3.38;;;-0.30;99.90;;;;;;5089289;28;20406;-79
2023/01/18 02:17:18;;;;;;;6.03;3.45;;;-0.30;99.90;;;;;;5089888;28;20963;-79
2023/01/18 02:20:25;;;;;;;6.30;3.42;;;-0.30;99.90;;;;;;5085951;28;20406;-78
2023/01/18 02:23:21;;;;;;;6.57;3.40;;;-0.30;99.90;;;;;;5063190;28;20414;-79
2023/01/18 02:26:06;;;;;;;6.72;3.60;;;-0.30;99.90;;;;;;5088455;28;20831;-79
2023/01/18 02:28:34;;;;;;;5.72;3.58;;;-0.40;99.90;;;;;;5072406;28;20425;-79
2023/01/18 02:31:12;;;;;;;7.82;3.92;;;-0.40;99.90;;;;;;5101989;28;20469;-79
2023/01/18 02:33:49;;;;;;;7.60;4.15;;;-0.40;99.90;;;;;;5066548;28;20510;-79
2023/01/18 02:36:21;;;;;;;9.02;4.07;;;-0.40;99.90;;;;;;5077701;28;20481;-79
2023/01/18 02:38:53;;;;;;;7.68;3.95;;;-0.40;99.90;;;;;;5078883;28;20436;-79
2023/01/18 02:47:20;;;;;;;7.05;4.28;;;-0.40;99.90;;;;;;5089032;28;20421;-79
2023/01/18 02:49:45;;;;;;;8.18;4.22;;;-0.40;99.90;;;;;;5101717;28;21248;-79
2023/01/18 02:52:37;;;;;;;7.32;4.43;;;-0.40;99.90;;;;;;5088620;28;20422;-79
2023/01/18 02:55:05;;;;;;;8.63;4.30;;;-0.40;99.90;;;;;;5078421;28;20841;-79
2023/01/18 02:57:32;;;;;;;7.90;4.60;;;-0.40;99.90;;;;;;5087982;28;20414;-79
2023/01/18 03:00:01;;;;;;;8.38;4.78;;;-0.40;99.90;;;;;;5071560;28;20402;-79
2023/01/18 03:02:27;;;;;;;10.35;4.78;;;-0.40;99.90;;;;;;5087759;28;20463;-79
2023/01/18 03:04:54;;;;;;;8.05;4.75;;;-0.40;99.90;;;;;;5071539;28;20402;-79
2023/01/18 03:07:31;;;;;;;8.65;4.72;;;-0.40;99.90;;;;;;5085615;28;20479;-79
2023/01/18 03:10:00;;;;;;;10.20;5.07;;;-0.40;99.90;;;;;;5088168;28;20406;-79
2023/01/18 03:12:44;;;;;;;8.57;4.90;;;-0.50;99.90;;;;;;5087942;28;21151;-79
2023/01/18 03:15:37;;;;;;;8.32;5.03;;;-0.50;99.90;;;;;;5068147;28;20396;-79
2023/01/18 03:18:13;;;;;;;10.25;5.45;;;-0.50;99.90;;;;;;5078218;28;20414;-79
2023/01/18 03:20:45;;;;;;;9.90;5.20;;;-0.50;99.90;;;;;;5088205;28;20854;-78
2023/01/18 03:23:38;;;;;;;9.05;5.25;;;-0.50;99.90;;;;;;5088354;28;20410;-79
2023/01/18 03:26:17;;;;;;;8.88;5.30;;;-0.50;99.90;;;;;;5088357;28;20406;-79
2023/01/18 03:34:35;;;;;;;10.02;5.60;;;-0.50;99.90;;;;;;5076274;28;20424;-79
2023/01/18 03:37:07;;;;;;;8.97;5.43;;;-0.50;99.90;;;;;;5087866;28;20418;-79
2023/01/18 03:39:44;;;;;;;8.30;5.40;;;-0.50;99.90;;;;;;5084787;28;20420;-79
2023/01/18 03:42:24;;;;;;;9.52;5.60;;;-0.50;99.90;;;;;;5059062;28;20422;-79
2023/01/18 03:44:54;;;;;;;8.15;5.30;;;-0.50;99.90;;;;;;5084790;28;20497;-79
2023/01/18 03:47:20;;;;;;;9.32;5.82;;;-0.50;99.90;;;;;;5073505;28;20409;-79
2023/01/18 03:49:46;;;;;;;9.35;5.40;;;-0.50;99.90;;;;;;5089121;28;20459;-79
2023/01/18 03:52:22;;;;;;;8.73;5.13;;;-0.50;99.90;;;;;;5070693;28;20429;-79
2023/01/18 03:55:18;;;;;;;11.02;5.65;;;-0.50;99.90;;;;;;5086906;28;20450;-79
2023/01/18 03:57:51;;;;;;;8.70;4.93;;;-0.50;99.90;;;;;;5087693;28;20410;-79
2023/01/18 04:00:17;;;;;;;9.77;5.15;;;-0.50;99.90;;;;;;5087882;28;20547;-79
2023/01/18 04:02:44;;;;;;;8.75;5.20;;;-0.50;99.90;;;;;;5056798;28;20501;-79
2023/01/18 04:05:10;;;;;;;10.88;5.88;;;-0.50;99.90;;;;;;5100635;28;20460;-79
2023/01/18 04:07:36;;;;;;;9.18;5.22;;;-0.50;99.90;;;;;;5074290;28;20454;-78
2023/01/18 04:10:01;;;;;;;9.00;5.60;;;-0.50;99.90;;;;;;5070736;28;20410;-79
2023/01/18 04:12:27;;;;;;;8.40;5.43;;;-0.50;99.90;;;;;;5093067;28;20455;-78
2023/01/18 04:14:53;;;;;;;11.02;5.47;;;-0.50;99.90;;;;;;5106957;28;20407;-79
2023/01/18 04:17:19;;;;;;;7.87;5.23;;;-0.50;99.90;;;;;;5089764;28;20404;-78
2023/01/18 04:19:45;;;;;;;10.33;5.60;;;-0.50;99.90;;;;;;5087720;28;20470;-78
2023/01/18 04:22:10;;;;;;;8.82;5.30;;;-0.50;99.90;;;;;;5087139;28;20409;-78
2023/01/18 04:24:36;;;;;;;8.98;5.40;;;-0.50;99.90;;;;;;5087080;28;20532;-78
2023/01/18 04:27:02;;;;;;;9.60;5.22;;;-0.50;99.90;;;;;;5070533;28;20771;-79
2023/01/18 04:29:28;;;;;;;9.95;5.40;;;-0.50;99.90;;;;;;5086557;28;20411;-79
2023/01/18 04:31:54;;;;;;;9.45;5.65;;;-0.50;99.90;;;;;;5070337;28;20433;-79
2023/01/18 04:34:22;;;;;;;8.98;5.45;;;-0.50;99.90;;;;;;5087118;28;20405;-78
2023/01/18 04:36:49;;;;;;;7.90;5.40;;;-0.50;99.90;;;;;;5070305;28;20425;-78
2023/01/18 04:39:15;;;;;;;9.93;5.78;;;-0.50;99.90;;;;;;5086873;28;20489;-78
2023/01/18 04:41:41;;;;;;;8.68;5.47;;;-0.60;99.90;;;;;;5086682;28;20764;-78
2023/01/18 04:44:07;;;;;;;9.07;6.10;;;-0.60;99.90;;;;;;5069576;28;20394;-78
2023/01/18 04:46:33;;;;;;;8.77;5.90;;;-0.50;99.90;;;;;;5085927;28;20402;-78
2023/01/18 04:48:59;;;;;;;9.73;5.63;;;-0.50;99.90;;;;;;5086140;28;20405;-78
2023/01/18 04:51:26;;;;;;;10.52;6.00;;;-0.50;99.90;;;;;;5086726;28;20402;-78
2023/01/18 04:53:52;;;;;;;8.10;5.60;;;-0.50;99.90;;;;;;5082118;28;20425;-78
2023/01/18 04:56:18;;;;;;;9.80;5.73;;;-0.50;99.90;;;;;;5082031;28;20396;-78
2023/01/18 04:58:44;;;;;;;8.77;5.38;;;-0.50;99.90;;;;;;5067457;28;20406;-78
2023/01/18 05:01:13;;;;;;;9.67;5.40;;;-0.50;99.90;;;;;;5083219;28;20494;-78
2023/01/18 05:03:40;;;;;;;9.80;5.83;;;-0.50;99.90;;;;;;5073219;28;20415;-78
2023/01/18 05:06:11;;;;;;;9.20;5.40;;;-0.50;99.90;;;;;;5093934;28;20410;-78
2023/01/18 05:08:40;;;;;;;9.25;5.90;;;-0.40;99.90;;;;;;5092143;28;20745;-78
2023/01/18 05:11:09;;;;;;;10.02;5.68;;;-0.40;99.90;;;;;;5089412;28;20475;-78
2023/01/18 05:13:35;;;;;;;9.05;5.90;;;-0.40;99.90;;;;;;5112357;28;20481;-78
2023/01/18 05:16:02;;;;;;;8.63;5.72;;;-0.30;99.90;;;;;;5105110;28;20398;-78
2023/01/18 05:18:28;;;;;;;8.80;6.10;;;-0.40;99.90;;;;;;5093255;28;20437;-78
2023/01/18 05:20:54;;;;;;;10.68;6.68;;;-0.30;99.90;;;;;;5093909;28;20845;-78
2023/01/18 05:23:20;;;;;;;10.20;6.53;;;-0.30;99.90;;;;;;5094110;28;20489;-78
2023/01/18 05:25:54;;;;;;;12.23;6.90;;;-0.40;99.90;;;;;;5091735;28;20397;-78
2023/01/18 05:28:21;;;;;;;10.50;6.30;;;-0.40;99.90;;;;;;5082791;28;20757;-78
2023/01/18 05:30:48;;;;;;;11.10;6.68;;;-0.40;99.90;;;;;;5093209;28;20467;-78
2023/01/18 05:33:18;;;;;;;10.75;7.20;;;-0.30;99.90;;;;;;5093574;28;20448;-78
2023/01/18 05:35:48;;;;;;;11.75;6.78;;;-0.40;99.90;;;;;;5093853;28;20430;-78
2023/01/18 05:38:14;;;;;;;11.77;6.78;;;-0.40;99.90;;;;;;5093277;28;20414;-77
2023/01/18 05:40:46;;;;;;;12.60;7.28;;;-0.40;99.90;;;;;;5093073;28;20475;-78
2023/01/18 05:43:12;;;;;;;11.13;7.03;;;-0.40;99.90;;;;;;5092520;28;20509;-78
2023/01/18 05:45:37;;;;;;;11.48;7.18;;;-0.40;99.90;;;;;;5093113;28;20480;-78
2023/01/18 05:48:05;;;;;;;11.40;7.07;;;-0.40;99.90;;;;;;5092489;28;21424;-78
2023/01/18 05:50:31;;;;;;;11.98;7.68;;;-0.40;99.90;;;;;;5092292;28;20486;-79
2023/01/18 05:52:57;;;;;;;11.00;7.05;;;-0.50;99.90;;;;;;5093226;28;20425;-78
2023/01/18 05:55:23;;;;;;;11.93;7.63;;;-0.50;99.90;;;;;;5092674;28;20417;-78
2023/01/18 05:57:49;;;;;;;12.90;7.72;;;-0.50;99.90;;;;;;5076441;28;20417;-78
2023/01/18 06:00:15;;;;;;;14.57;8.03;;;-0.50;99.90;;;;;;5092753;28;20436;-78
2023/01/18 06:02:40;;;;;;;12.95;8.43;;;-0.50;99.90;;;;;;5093062;28;20406;-78
2023/01/18 06:05:06;;;;;;;13.02;7.97;;;-0.60;99.90;;;;;;5076119;28;20441;-78
2023/01/18 06:07:32;;;;;;;13.88;8.23;;;-0.50;99.90;;;;;;5093292;28;20406;-78
2023/01/18 06:09:58;;;;;;;13.85;8.60;;;-0.60;99.90;;;;;;5072111;28;20911;-78
2023/01/18 06:12:23;;;;;;;13.43;8.80;;;-0.60;99.90;;;;;;5072460;28;20850;-78
2023/01/18 06:14:49;;;;;;;14.60;9.13;;;-0.60;99.90;;;;;;5090147;28;20951;-78
2023/01/18 06:17:15;;;;;;;14.02;8.73;;;-0.50;99.90;;;;;;5090187;28;20446;-78
2023/01/18 06:19:41;;;;;;;13.98;8.68;;;-0.60;99.90;;;;;;5073941;28;20460;-78
2023/01/18 06:22:07;;;;;;;13.98;8.68;;;-0.60;99.90;;;;;;5089769;28;20484;-78
2023/01/18 06:24:32;;;;;;;12.98;8.45;;;-0.60;99.90;;;;;;5074424;28;20410;-78
2023/01/18 06:26:59;;;;;;;14.13;8.33;;;-0.60;99.90;;;;;;5072777;28;20406;-78
2023/01/18 06:29:25;;;;;;;13.15;8.48;;;-0.60;99.90;;;;;;5089984;28;20422;-78
2023/01/18 06:31:51;;;;;;;13.45;8.07;;;-0.60;99.90;;;;;;5072437;28;20437;-78
2023/01/18 06:34:16;;;;;;;14.98;8.57;;;-0.60;99.90;;;;;;5089421;28;20410;-78
2023/01/18 06:36:43;;;;;;;12.23;8.18;;;-0.60;99.90;;;;;;5088096;28;20445;-78
2023/01/18 06:39:09;;;;;;;13.65;7.78;;;-0.60;99.90;;;;;;5090114;28;20497;-78
2023/01/18 06:41:35;;;;;;;11.52;8.20;;;-0.60;99.90;;;;;;5090173;28;20553;-78
2023/01/18 06:44:01;;;;;;;13.60;7.97;;;-0.60;99.90;;;;;;5089712;28;20424;-78
2023/01/18 06:46:27;;;;;;;15.15;8.23;;;-0.60;99.90;;;;;;5089453;28;20813;-78
2023/01/18 06:48:53;;;;;;;11.68;7.88;;;-0.60;99.90;;;;;;5089530;28;20489;-78
2023/01/18 06:51:19;;;;;;;14.52;7.85;;;-0.60;99.90;;;;;;5089705;28;20445;-78
2023/01/18 06:53:44;;;;;;;14.48;8.40;;;-0.60;99.90;;;;;;5088976;28;20461;-78
2023/01/18 06:56:11;;;;;;;12.32;7.97;;;-0.60;99.90;;;;;;5089015;28;20424;-77
2023/01/18 06:58:37;;;;;;;11.82;7.78;;;-0.60;99.90;;;;;;5089493;28;20414;-77
2023/01/18 07:01:03;;;;;;;11.73;8.00;;;-0.60;99.90;;;;;;5088451;28;20412;-77
2023/01/18 07:03:30;;;;;;;12.63;8.23;;;-0.60;99.90;;;;;;5089378;28;20402;-77
2023/01/18 07:05:57;;;;;;;12.77;7.88;;;-0.60;99.90;;;;;;5088497;28;20842;-77
2023/01/18 07:08:25;;;;;;;12.80;7.82;;;-0.60;99.90;;;;;;5087789;28;20463;-77
2023/01/18 07:10:51;;;;;;;11.15;7.47;;;-0.60;99.90;;;;;;5059075;28;20435;-78
2023/01/18 07:13:17;;;;;;;13.13;7.97;;;-0.50;99.90;;;;;;5068610;28;21493;-77
2023/01/18 07:15:43;;;;;;;13.13;7.78;;;-0.50;99.90;;;;;;5087553;28;20398;-77
2023/01/18 07:18:09;;;;;;;11.23;7.82;;;-0.60;99.90;;;;;;5085415;28;20413;-77
2023/01/18 07:20:34;;;;;;;13.02;7.50;;;-0.50;99.90;;;;;;5089592;28;20421;-78
2023/01/18 07:23:01;;;;;;;12.67;7.83;;;-0.50;99.90;;;;;;5091366;28;20406;-78
2023/01/18 07:25:28;;;;;;;11.93;8.35;;;-0.50;99.90;;;;;;5088126;28;20406;-78
2023/01/18 07:27:56;;;;;;;13.23;7.88;;;-0.50;99.90;;;;;;5087481;28;20772;-78
2023/01/18 07:30:22;;;;;;;12.55;7.63;;;-0.50;99.90;;;;;;5077751;28;20471;-78
2023/01/18 07:32:49;;;;;;;12.37;8.00;;;-0.50;99.90;;;;;;5086330;28;20433;-78
2023/01/18 07:35:17;;;;;;;11.18;7.32;;;-0.50;99.90;;;;;;5084719;28;20414;-78
2023/01/18 07:37:51;;;;;;;12.10;7.57;;;-0.50;99.90;;;;;;5086179;28;20791;-78
2023/01/18 07:40:20;;;;;;;11.57;7.13;;;-0.50;99.90;;;;;;5090975;28;20432;-78
2023/01/18 07:42:46;;;;;;;12.57;7.20;;;-0.50;99.90;;;;;;5090151;28;20502;-78
2023/01/18 07:45:12;;;;;;;14.35;7.75;;;-0.50;99.90;;;;;;5085357;28;20405;-78
2023/01/18 07:47:41;;;;;;;11.80;6.93;;;-0.40;99.90;;;;;;5075590;28;20402;-78
2023/01/18 07:50:08;;;;;;;11.38;6.30;;;-0.40;99.90;;;;;;5105402;28;20819;-78
2023/01/18 07:52:34;;;;;;;10.57;6.57;;;-0.40;99.90;;;;;;5100406;28;20446;-78
2023/01/18 07:54:59;;;;;;;10.95;6.80;;;-0.40;99.90;;;;;;5087336;28;20417;-78
2023/01/18 07:57:25;;;;;;;10.47;6.43;;;-0.40;99.90;;;;;;5089355;28;20410;-77
2023/01/18 07:59:51;;;;;;;12.83;6.80;;;-0.40;99.90;;;;;;5087762;28;20999;-78
2023/01/18 08:02:16;;;;;;;12.93;6.60;;;-0.30;99.90;;;;;;5087262;28;20760;-77
2023/01/18 08:04:44;;;;;;;11.65;6.18;;;-0.30;99.90;;;;;;5084857;28;20421;-78
2023/01/18 08:07:09;;;;;;;10.50;6.00;;;-0.30;99.90;;;;;;5070633;28;20409;-78
2023/01/18 08:09:35;;;;;;;10.15;6.20;;;-0.30;99.90;;;;;;5086643;28;20474;-78
2023/01/18 08:12:01;;;;;;;12.40;6.47;;;-0.20;99.90;;;;;;5089141;28;20490;-78
2023/01/18 08:14:27;;;;;;;9.30;5.72;;;-0.20;99.90;;;;;;5087280;28;20402;-78
2023/01/18 08:16:52;;;;;;;10.52;5.90;;;-0.20;99.90;;;;;;5098222;28;20451;-77
2023/01/18 08:19:18;;;;;;;10.87;5.97;;;-0.20;99.90;;;;;;5099819;28;20402;-78
2023/01/18 08:21:44;;;;;;;9.85;5.55;;;-0.20;99.90;;;;;;5097969;28;20457;-78
2023/01/18 08:24:11;;;;;;;11.23;5.95;;;-0.20;99.90;;;;;;5084028;28;20467;-77
2023/01/18 08:26:37;;;;;;;12.48;6.07;;;-0.10;99.90;;;;;;5080917;28;20496;-78
2023/01/18 08:29:03;;;;;;;9.13;5.70;;;-0.10;99.90;;;;;;5091238;28;20415;-78
2023/01/18 08:31:28;;;;;;;10.05;6.00;;;-0.10;99.90;;;;;;5076639;28;20409;-78
2023/01/18 08:33:54;;;;;;;11.27;6.10;;;-0.10;99.90;;;;;;5087325;28;20441;-78
2023/01/18 08:36:22;;;;;;;10.23;5.53;;;0.00;99.90;;;;;;5091724;28;20420;-78
2023/01/18 08:38:50;;;;;;;10.18;5.75;;;0.00;99.90;;;;;;5093843;28;20404;-78
2023/01/18 08:41:16;;;;;;;10.18;5.57;;;0.00;99.90;;;;;;5086639;28;20417;-78
2023/01/18 08:43:42;;;;;;;11.35;5.78;;;0.00;99.90;;;;;;5085401;28;20410;-78
2023/01/18 08:46:07;;;;;;;9.93;5.57;;;0.00;99.90;;;;;;5056249;28;20407;-77
2023/01/18 08:48:33;;;;;;;12.23;5.63;;;0.00;99.90;;;;;;5081223;28;20406;-79
2023/01/18 08:51:01;;;;;;;13.30;5.63;;;0.00;99.90;;;;;;5078780;28;20412;-78
2023/01/18 08:53:28;;;;;;;10.55;4.85;;;0.10;99.90;;;;;;5063309;28;20621;-78
2023/01/18 08:55:53;;;;;;;9.80;5.50;;;0.20;99.90;;;;;;5074587;28;20821;-78
2023/01/18 08:58:19;;;;;;;10.00;5.17;;;0.20;99.90;;;;;;5079132;28;20441;-77
2023/01/18 09:00:49;;;;;;;10.83;4.90;;;0.20;99.90;;;;;;5067181;28;20925;-79
2023/01/18 09:03:18;;;;;;;8.70;5.35;;;0.20;99.90;;;;;;5088602;28;20389;-79
2023/01/18 09:05:44;;;;;;;10.45;5.60;;;0.30;99.90;;;;;;5087875;28;20402;-79
2023/01/18 09:08:10;;;;;;;10.00;5.17;;;0.30;99.90;;;;;;5087185;28;20430;-79
2023/01/18 09:10:37;;;;;;;9.80;5.28;;;0.30;99.90;;;;;;5086553;28;20999;-79
2023/01/18 09:13:04;;;;;;;9.15;5.22;;;0.40;99.90;;;;;;5086261;28;20429;-78
2023/01/18 09:15:30;;;;;;;7.78;4.70;;;0.40;99.90;;;;;;5086810;28;20401;-79
2023/01/18 09:17:57;;;;;;;9.35;5.22;;;0.50;99.90;;;;;;5069077;28;20457;-79
2023/01/18 09:20:23;;;;;;;10.50;5.30;;;0.50;99.90;;;;;;5086326;28;20413;-79
2023/01/18 09:22:48;;;;;;;10.93;5.30;;;0.50;99.90;;;;;;5098516;28;20401;-79
2023/01/18 09:25:16;;;;;;;8.73;5.10;;;0.50;99.90;;;;;;5079606;28;20413;-78
2023/01/18 09:27:43;;;;;;;11.02;5.53;;;0.60;99.90;;;;;;5085816;28;20426;-78
2023/01/18 09:30:09;;;;;;;9.80;5.50;;;0.60;99.90;;;;;;5089242;28;20470;-78
2023/01/18 09:32:35;;;;;;;13.52;6.50;;;0.60;99.90;;;;;;5070932;28;20425;-79
2023/01/18 09:35:01;;;;;;;11.00;5.77;;;0.60;99.90;;;;;;5086607;28;20428;-79
2023/01/18 09:37:27;;;;;;;9.60;6.00;;;0.60;99.90;;;;;;5089760;28;20935;-79
2023/01/18 09:39:52;;;;;;;11.43;5.93;;;0.60;99.90;;;;;;5086273;28;20491;-78
2023/01/18 09:42:26;;;;;;;10.48;5.47;;;0.70;99.90;;;;;;5086868;28;20410;-79
2023/01/18 09:44:57;;;;;;;10.63;6.00;;;0.70;99.90;;;;;;5072314;28;20493;-79
2023/01/18 09:47:32;;;;;;;9.77;5.37;;;0.70;99.90;;;;;;5090659;28;20406;-79
2023/01/18 09:50:01;;;;;;;9.98;5.25;;;0.80;99.90;;;;;;5074286;28;20426;-78
2023/01/18 09:52:41;;;;;;;10.20;5.43;;;0.80;99.90;;;;;;5089433;28;20500;-78
2023/01/18 09:55:26;;;;;;;10.27;5.75;;;0.80;99.90;;;;;;5092922;28;20458;-78
2023/01/18 09:58:27;;;;;;;11.82;5.90;;;0.90;99.90;;;;;;5093260;28;20402;-79
2023/01/18 10:00:59;;;;;;;9.25;5.65;;;0.90;99.90;;;;;;5085151;28;20912;-78
2023/01/18 10:03:53;;;;;;;8.57;5.40;;;1.00;99.90;;;;;;5071474;28;20496;-78
2023/01/18 10:06:26;;;;;;;9.83;5.27;;;1.00;99.90;;;;;;5091667;28;20437;-79
2023/01/18 10:09:05;;;;;;;9.57;5.82;;;1.10;99.90;;;;;;5091359;28;20442;-79
2023/01/18 10:11:58;;;;;;;9.77;6.00;;;1.10;99.90;;;;;;5081633;28;21280;-79
2023/01/18 10:14:45;;;;;;;8.65;5.40;;;1.10;99.90;;;;;;5092435;28;20417;-79
2023/01/18 10:17:19;;;;;;;10.30;5.50;;;1.20;99.90;;;;;;5089853;28;20497;-79
2023/01/18 10:19:45;;;;;;;11.15;5.25;;;1.20;99.90;;;;;;5086129;28;21099;-78
2023/01/18 10:22:31;;;;;;;9.43;5.50;;;1.20;99.90;;;;;;5089541;28;20406;-78
2023/01/18 10:25:13;;;;;;;10.38;5.50;;;1.30;99.90;;;;;;5089573;28;20418;-78
2023/01/18 10:27:57;;;;;;;9.25;5.35;;;1.30;99.90;;;;;;5089056;28;20418;-79
2023/01/18 10:30:34;;;;;;;9.00;5.05;;;1.30;99.90;;;;;;5084868;28;20446;-79
2023/01/18 10:33:12;;;;;;;8.63;5.13;;;1.40;99.90;;;;;;5089334;28;20540;-79
2023/01/18 10:35:46;;;;;;;10.25;5.30;;;1.40;99.90;;;;;;5094218;28;20413;-79
2023/01/18 10:38:16;;;;;;;8.30;4.70;;;1.50;99.90;;;;;;5106183;28;20431;-78
2023/01/18 10:40:54;;;;;;;7.90;4.78;;;1.60;99.90;;;;;;5082910;28;20408;-79
2023/01/18 10:43:22;;;;;;;8.65;4.60;;;1.60;99.90;;;;;;5106373;28;20467;-79
2023/01/18 10:45:48;;;;;;;8.20;5.20;;;1.70;99.90;;;;;;5109465;28;20413;-79
2023/01/18 10:48:16;;;;;;;9.52;5.60;;;1.70;99.90;;;;;;5106304;28;20407;-79
2023/01/18 10:50:46;;;;;;;8.10;4.65;;;2.00;99.90;;;;;;5088815;28;20449;-79
2023/01/18 10:53:22;;;;;;;9.10;4.75;;;3.00;99.90;;;;;;5086660;28;20481;-79
2023/01/18 10:56:06;;;;;;;8.13;4.22;;;4.20;99.90;;;;;;5075762;28;20413;-77
2023/01/18 10:58:43;;;;;;;7.28;4.18;;;5.00;99.90;;;;;;5084870;28;20421;-79
2023/01/18 11:01:22;;;;;;;8.32;4.25;;;5.30;99.90;;;;;;5078401;28;20944;-79
2023/01/18 11:03:49;;;;;;;7.22;4.18;;;5.20;99.90;;;;;;5088417;28;20398;-79
2023/01/18 11:06:18;;;;;;;7.00;4.05;;;5.10;99.90;;;;;;5087679;28;20429;-79
2023/01/18 11:08:43;;;;;;;7.70;4.20;;;4.90;99.90;;;;;;5088555;28;20406;-79
2023/01/18 11:12:32;;;;;;;7.55;4.25;;;4.70;99.90;;;;;;5088174;28;20429;-79
2023/01/18 11:14:27;;;;;;;7.30;4.18;;;4.60;99.90;;;;;;5070901;28;20432;-79
2023/01/18 11:17:10;;;;;;;7.57;3.90;;;4.80;99.90;;;;;;5065470;28;20489;-79
2023/01/18 11:19:36;;;;;;;7.35;3.85;;;5.00;99.90;;;;;;5086512;28;20432;-79
2023/01/18 11:22:09;;;;;;;6.82;3.72;;;5.20;99.90;;;;;;5058176;28;20412;-79
2023/01/18 11:24:36;;;;;;;7.10;4.18;;;5.50;99.90;;;;;;5087488;28;21009;-79
2023/01/18 11:27:13;;;;;;;9.43;3.83;;;6.10;99.90;;;;;;5088754;28;20402;-79
2023/01/18 11:29:44;;;;;;;7.43;3.72;;;6.80;99.90;;;;;;5075872;28;20537;-79
2023/01/18 11:32:25;;;;;;;7.88;4.00;;;7.30;99.90;;;;;;5070195;28;20421;-79
2023/01/18 11:34:53;;;;;;;6.50;3.67;;;7.60;99.90;;;;;;5087428;28;20437;-80
2023/01/18 11:37:30;;;;;;;8.57;3.60;;;7.90;99.90;;;;;;5088588;28;20421;-79
2023/01/18 11:39:56;;;;;;;6.80;3.40;;;8.10;99.90;;;;;;5088318;28;21107;-80
2023/01/18 11:42:29;;;;;;;5.80;3.38;;;8.30;99.90;;;;;;5070133;28;20461;-80
2023/01/18 11:45:00;;;;;;;6.97;3.30;;;8.50;99.90;;;;;;5068934;28;21018;-80
2023/01/18 11:47:57;;;;;;;6.50;3.33;;;8.60;99.90;;;;;;5087510;28;20428;-80
2023/01/18 11:50:44;;;;;;;6.27;3.37;;;8.00;99.90;;;;;;5083020;28;20418;-79
2023/01/18 11:53:16;;;;;;;7.73;3.47;;;7.10;99.90;;;;;;5083352;28;20465;-79
2023/01/18 11:55:55;;;;;;;8.32;3.60;;;6.20;99.90;;;;;;5064409;28;20433;-79
2023/01/18 11:58:27;;;;;;;6.75;3.50;;;5.60;99.90;;;;;;5077365;28;20980;-80
2023/01/18 12:01:25;;;;;;;6.38;3.50;;;5.10;99.90;;;;;;5082933;28;20934;-80
2023/01/18 12:04:20;;;;;;;10.20;3.88;;;4.80;99.90;;;;;;5033817;28;20928;-80
2023/01/18 12:06:49;;;;;;;9.13;3.65;;;4.50;99.90;;;;;;5076525;28;20435;-80
2023/01/18 12:09:39;;;;;;;7.88;4.30;;;4.40;99.90;;;;;;5068326;28;20436;-79
2023/01/18 12:12:30;;;;;;;8.07;3.83;;;4.20;99.90;;;;;;5084432;28;20422;-80
2023/01/18 12:15:42;;;;;;;7.32;4.13;;;4.10;99.90;;;;;;5085037;28;20474;-80
2023/01/18 12:18:22;;;;;;;8.63;4.35;;;4.20;99.90;;;;;;5084613;28;20441;-80
2023/01/18 12:21:10;;;;;;;7.00;4.13;;;4.20;99.90;;;;;;5086063;28;20441;-80
2023/01/18 12:24:04;;;;;;;7.25;4.22;;;4.20;99.90;;;;;;5072285;28;20957;-80
2023/01/18 12:26:35;;;;;;;6.55;3.67;;;4.30;99.90;;;;;;5085671;28;20435;-80
2023/01/18 12:29:23;;;;;;;7.82;3.85;;;4.30;99.90;;;;;;5063937;28;20428;-80
2023/01/18 12:32:05;;;;;;;6.03;3.83;;;4.40;99.90;;;;;;5065152;28;20466;-80
2023/01/18 12:35:05;;;;;;;6.63;3.67;;;4.60;99.90;;;;;;5084759;28;20425;-80
2023/01/18 12:37:48;;;;;;;9.60;3.78;;;4.70;99.90;;;;;;5084976;28;20497;-80
2023/01/18 12:40:39;;;;;;;10.30;4.35;;;4.80;99.90;;;;;;5085317;28;21279;-80
2023/01/18 12:43:33;;;;;;;5.65;3.30;;;4.80;99.90;;;;;;5056910;28;20779;-79
2023/01/18 12:46:15;;;;;;;5.57;3.03;;;5.20;99.90;;;;;;5067877;28;20402;-78
2023/01/18 12:49:20;;;;;;;6.47;3.60;;;5.40;99.90;;;;;;5085990;28;21217;-78
2023/01/18 12:51:53;;;;;;;7.82;3.45;;;5.40;99.90;;;;;;5006650;28;20917;-78
2023/01/18 12:54:19;;;;;;;6.10;3.30;;;5.20;99.90;;;;;;4989989;28;20448;-78
2023/01/18 12:56:49;;;;;;;6.37;3.40;;;5.00;99.90;;;;;;5038808;28;20421;-78
2023/01/18 12:59:22;;;;;;;8.07;3.50;;;4.90;99.90;;;;;;5083351;28;20426;-78
2023/01/18 13:02:17;;;;;;;5.78;3.45;;;5.00;99.90;;;;;;5087907;28;20504;-79
2023/01/18 13:05:16;;;;;;;6.03;3.17;;;4.90;99.90;;;;;;5072277;28;20426;-78
2023/01/18 13:07:47;;;;;;;7.47;3.50;;;4.80;99.90;;;;;;5024511;28;20466;-78
2023/01/18 13:10:22;;;;;;;6.65;3.15;;;4.90;99.90;;;;;;5082370;28;20965;-78
2023/01/18 13:12:49;;;;;;;7.40;3.10;;;5.10;99.90;;;;;;5089153;28;20834;-78
2023/01/18 13:15:36;;;;;;;5.90;2.92;;;5.20;99.90;;;;;;5068926;28;20425;-78
2023/01/18 13:18:06;;;;;;;7.43;3.28;;;5.30;99.90;;;;;;5070365;28;20463;-78
2023/01/18 13:20:47;;;;;;;6.97;2.73;;;5.30;99.90;;;;;;5089939;28;20445;-78
2023/01/18 13:23:28;;;;;;;7.45;2.72;;;5.50;99.90;;;;;;5106642;28;20416;-79
2023/01/18 13:26:15;;;;;;;7.68;2.78;;;5.50;99.90;;;;;;5074611;28;20457;-79
2023/01/18 13:28:42;;;;;;;6.60;2.65;;;5.30;99.90;;;;;;5054166;28;20439;-78
2023/01/18 13:31:08;;;;;;;6.28;2.70;;;5.20;99.90;;;;;;5087843;28;20430;-78
2023/01/18 13:33:39;;;;;;;6.80;2.70;;;5.10;99.90;;;;;;5073279;28;20436;-78
2023/01/18 13:36:12;;;;;;;5.60;2.67;;;5.00;99.90;;;;;;5091673;28;20452;-78
2023/01/18 13:38:52;;;;;;;5.60;2.67;;;4.80;99.90;;;;;;5090677;28;20436;-78
2023/01/18 13:41:26;;;;;;;5.60;2.75;;;4.70;99.90;;;;;;5088581;28;20535;-78